Time,TemperatureF,DewpointF,PressureIn,WindDirection,WindDirectionDegrees,WindSpeedMPH,WindSpeedGustMPH,Humidity,HourlyPrecipIn,Conditions,Clouds,dailyrainin,SoftwareType,DateUTC
2013-01-09 08:02:00,47.9,45.7,30.39,WSW,249,0.0,0.0,92,0.00,,,0.00,Wunderground v.1.15,2013-01-09 13:02:00,
2013-01-09 08:03:00,47.9,45.7,30.39,WSW,249,0.0,0.0,92,0.00,,,0.00,Wunderground v.1.15,2013-01-09 13:03:00,
2013-01-09 08:08:00,48.0,45.8,30.39,WSW,249,0.0,0.0,92,0.00,,,0.00,Wunderground v.1.15,2013-01-09 13:08:00,
2013-01-09 08:13:00,48.0,45.8,30.40,WSW,249,0.0,0.0,92,0.00,,,0.00,Wunderground v.1.15,2013-01-09 13:13:00,
2013-01-09 08:18:00,48.0,45.8,30.40,WSW,249,0.0,0.0,92,0.00,,,0.00,Wunderground v.1.15,2013-01-09 13:18:00,
2013-01-09 08:23:00,48.0,46.1,30.40,WSW,249,0.0,0.0,93,0.00,,,0.00,Wunderground v.1.15,2013-01-09 13:23:00,
2013-01-09 08:28:00,48.1,46.2,30.40,WSW,249,0.0,0.0,93,0.00,,,0.00,Wunderground v.1.15,2013-01-09 13:28:00,
2013-01-09 08:33:00,48.1,46.2,30.40,SSE,167,0.0,0.0,93,0.00,,,0.00,Wunderground v.1.15,2013-01-09 13:33:00,
2013-01-09 08:39:00,48.1,46.2,30.40,SSE,166,0.0,0.0,93,0.00,,,0.01,Wunderground v.1.15,2013-01-09 13:39:00,
2013-01-09 08:44:00,48.2,46.3,30.40,SSE,166,0.0,0.0,93,0.00,,,0.01,Wunderground v.1.15,2013-01-09 13:44:00,
2013-01-09 08:49:00,48.2,46.6,30.41,SSE,166,0.0,0.0,94,0.00,,,0.01,Wunderground v.1.15,2013-01-09 13:49:00,
2013-01-09 08:54:00,48.3,46.7,30.40,SSE,166,0.0,0.0,94,0.00,,,0.01,Wunderground v.1.15,2013-01-09 13:54:00,
2013-01-09 09:00:00,48.5,46.9,30.40,SSE,167,0.0,1.0,94,0.00,,,0.01,Wunderground v.1.15,2013-01-09 14:00:00,
2013-01-09 09:05:00,48.5,46.9,30.40,SSE,167,0.0,1.0,94,0.00,,,0.01,Wunderground v.1.15,2013-01-09 14:05:00,
2013-01-09 09:10:00,48.5,46.9,30.40,SSE,166,0.0,1.0,94,0.00,,,0.01,Wunderground v.1.15,2013-01-09 14:10:00,
2013-01-09 09:15:00,48.7,47.1,30.41,SSE,166,0.0,1.0,94,0.00,,,0.02,Wunderground v.1.15,2013-01-09 14:15:00,
2013-01-09 09:20:00,48.8,47.2,30.40,SSE,166,0.0,1.0,94,0.00,,,0.02,Wunderground v.1.15,2013-01-09 14:20:00,
2013-01-09 09:25:00,48.7,47.1,30.41,WNW,293,0.0,1.0,94,0.00,,,0.02,Wunderground v.1.15,2013-01-09 14:25:00,
2013-01-09 09:30:00,48.6,47.0,30.40,North,358,1.0,2.0,94,0.00,,,0.02,Wunderground v.1.15,2013-01-09 14:30:00,
2013-01-09 09:36:00,48.4,47.0,30.41,NNW,334,2.0,3.0,95,0.00,,,0.02,Wunderground v.1.15,2013-01-09 14:36:00,
2013-01-09 09:41:00,48.4,47.0,30.42,NNW,333,2.0,2.0,95,0.00,,,0.03,Wunderground v.1.15,2013-01-09 14:41:00,
2013-01-09 09:46:00,48.5,47.4,30.42,NNW,333,1.0,2.0,96,0.00,,,0.03,Wunderground v.1.15,2013-01-09 14:46:00,
2013-01-09 09:51:00,48.6,47.5,30.42,NNW,333,0.0,1.0,96,0.00,,,0.03,Wunderground v.1.15,2013-01-09 14:51:00,
2013-01-09 09:56:00,48.7,47.6,30.42,NNW,333,0.0,1.0,96,0.00,,,0.03,Wunderground v.1.15,2013-01-09 14:56:00,
2013-01-09 10:02:00,48.9,47.8,30.42,SW,217,0.0,1.0,96,0.00,,,0.03,Wunderground v.1.15,2013-01-09 15:02:00,
2013-01-09 10:07:00,48.8,47.7,30.43,SW,218,0.0,1.0,96,0.00,,,0.03,Wunderground v.1.15,2013-01-09 15:07:00,
2013-01-09 10:12:00,48.9,47.8,30.43,SW,233,0.0,1.0,96,0.00,,,0.03,Wunderground v.1.15,2013-01-09 15:12:00,
2013-01-09 10:17:00,49.0,47.9,30.44,SW,221,0.0,1.0,96,0.00,,,0.04,Wunderground v.1.15,2013-01-09 15:17:00,
2013-01-09 10:22:00,49.0,47.9,30.43,SSW,211,1.0,2.0,96,0.00,,,0.04,Wunderground v.1.15,2013-01-09 15:22:00,
2013-01-09 10:28:00,49.0,47.9,30.43,SSW,201,1.0,1.0,96,0.00,,,0.04,Wunderground v.1.15,2013-01-09 15:28:00,
2013-01-09 10:33:00,49.2,48.1,30.43,South,174,0.0,1.0,96,0.00,,,0.04,Wunderground v.1.15,2013-01-09 15:33:00,
2013-01-09 10:38:00,49.4,48.3,30.43,South,174,0.0,1.0,96,0.00,,,0.04,Wunderground v.1.15,2013-01-09 15:38:00,
2013-01-09 10:43:00,49.6,48.5,30.43,South,174,0.0,1.0,96,0.00,,,0.04,Wunderground v.1.15,2013-01-09 15:43:00,
2013-01-09 10:48:00,49.8,48.7,30.43,South,174,0.0,1.0,96,0.00,,,0.04,Wunderground v.1.15,2013-01-09 15:48:00,
2013-01-09 10:54:00,50.2,49.1,30.43,West,270,0.0,1.0,96,0.00,,,0.04,Wunderground v.1.15,2013-01-09 15:54:00,
2013-01-09 10:59:00,50.5,49.4,30.43,West,269,0.0,1.0,96,0.00,,,0.04,Wunderground v.1.15,2013-01-09 15:59:00,
2013-01-09 11:04:00,50.8,49.7,30.42,West,270,0.0,1.0,96,0.00,,,0.04,Wunderground v.1.15,2013-01-09 16:04:00,
2013-01-09 11:09:00,50.8,49.7,30.42,West,270,0.0,1.0,96,0.00,,,0.04,Wunderground v.1.15,2013-01-09 16:09:00,
2013-01-09 11:14:00,50.8,49.4,30.43,West,271,0.0,1.0,95,0.00,,,0.04,Wunderground v.1.15,2013-01-09 16:14:00,
2013-01-09 11:20:00,50.9,49.8,30.42,West,271,0.0,1.0,96,0.00,,,0.04,Wunderground v.1.15,2013-01-09 16:20:00,
2013-01-09 11:25:00,51.0,49.9,30.42,SE,143,0.0,1.0,96,0.00,,,0.04,Wunderground v.1.15,2013-01-09 16:25:00,
2013-01-09 11:30:00,51.2,50.1,30.42,SE,144,0.0,1.0,96,0.00,,,0.04,Wunderground v.1.15,2013-01-09 16:30:00,
2013-01-09 11:35:00,51.4,50.3,30.41,SE,144,0.0,1.0,96,0.00,,,0.04,Wunderground v.1.15,2013-01-09 16:35:00,
2013-01-09 11:40:00,51.4,50.3,30.41,SE,143,0.0,1.0,96,0.00,,,0.04,Wunderground v.1.15,2013-01-09 16:40:00,
2013-01-09 11:46:00,51.5,50.1,30.41,SE,143,0.0,1.0,95,0.00,,,0.04,Wunderground v.1.15,2013-01-09 16:46:00,
2013-01-09 11:51:00,51.2,49.8,30.41,SE,143,1.0,1.0,95,0.00,,,0.05,Wunderground v.1.15,2013-01-09 16:51:00,
2013-01-09 11:56:00,51.0,49.6,30.41,NNW,341,1.0,2.0,95,0.00,,,0.05,Wunderground v.1.15,2013-01-09 16:56:00,
2013-01-09 12:01:00,50.8,49.7,30.41,North,349,2.0,2.0,96,0.00,,,0.05,Wunderground v.1.15,2013-01-09 17:01:00,
2013-01-09 12:06:00,50.8,49.7,30.40,North,6,2.0,2.0,96,0.00,,,0.05,Wunderground v.1.15,2013-01-09 17:06:00,
2013-01-09 12:12:00,50.8,49.7,30.40,North,6,1.0,1.0,96,0.00,,,0.05,Wunderground v.1.15,2013-01-09 17:12:00,
2013-01-09 12:17:00,50.8,49.7,30.40,North,6,1.0,1.0,96,0.00,,,0.05,Wunderground v.1.15,2013-01-09 17:17:00,
2013-01-09 12:22:00,50.9,49.8,30.39,North,6,0.0,1.0,96,0.00,,,0.05,Wunderground v.1.15,2013-01-09 17:22:00,
2013-01-09 12:27:00,51.0,50.2,30.39,North,6,0.0,1.0,97,0.00,,,0.05,Wunderground v.1.15,2013-01-09 17:27:00,
2013-01-09 12:32:00,51.2,50.4,30.39,North,6,0.0,1.0,97,0.00,,,0.05,Wunderground v.1.15,2013-01-09 17:32:00,
2013-01-09 12:38:00,51.4,50.6,30.39,North,6,0.0,1.0,97,0.00,,,0.05,Wunderground v.1.15,2013-01-09 17:38:00,
2013-01-09 12:43:00,51.4,50.6,30.39,North,6,0.0,1.0,97,0.00,,,0.05,Wunderground v.1.15,2013-01-09 17:43:00,
2013-01-09 12:48:00,51.4,50.3,30.39,North,6,0.0,1.0,96,0.00,,,0.05,Wunderground v.1.15,2013-01-09 17:48:00,
2013-01-09 12:53:00,51.4,50.3,30.39,North,6,0.0,1.0,96,0.00,,,0.05,Wunderground v.1.15,2013-01-09 17:53:00,
2013-01-09 12:58:00,51.3,50.2,30.39,NNW,333,1.0,1.0,96,0.00,,,0.05,Wunderground v.1.15,2013-01-09 17:58:00,
2013-01-09 13:04:00,51.3,50.5,30.38,NNW,332,1.0,1.0,97,0.00,,,0.05,Wunderground v.1.15,2013-01-09 18:04:00,
2013-01-09 13:09:00,51.5,50.7,30.38,NNW,332,0.0,1.0,97,0.00,,,0.05,Wunderground v.1.15,2013-01-09 18:09:00,
2013-01-09 13:14:00,51.7,50.9,30.38,NNW,331,0.0,1.0,97,0.00,,,0.05,Wunderground v.1.15,2013-01-09 18:14:00,
2013-01-09 13:19:00,51.8,51.0,30.38,South,174,0.0,1.0,97,0.00,,,0.05,Wunderground v.1.15,2013-01-09 18:19:00,
2013-01-09 13:24:00,52.0,51.2,30.38,South,174,0.0,1.0,97,0.00,,,0.05,Wunderground v.1.15,2013-01-09 18:24:00,
2013-01-09 13:30:00,52.1,51.3,30.38,South,175,0.0,1.0,97,0.00,,,0.05,Wunderground v.1.15,2013-01-09 18:30:00,
2013-01-09 13:35:00,52.2,51.4,30.38,South,174,0.0,1.0,97,0.00,,,0.05,Wunderground v.1.15,2013-01-09 18:35:00,
2013-01-09 13:40:00,52.2,51.1,30.37,South,174,0.0,1.0,96,0.00,,,0.05,Wunderground v.1.15,2013-01-09 18:40:00,
2013-01-09 13:41:00,52.2,51.1,30.37,South,174,0.0,1.0,96,0.00,,,0.05,Wunderground v.1.15,2013-01-09 18:41:00,
2013-01-09 13:42:00,52.2,51.1,30.37,South,174,0.0,1.0,96,0.00,,,0.05,Wunderground v.1.15,2013-01-09 18:42:00,
2013-01-09 13:44:00,52.2,51.1,30.37,SE,141,0.0,1.0,96,0.00,,,0.05,Wunderground v.1.15,2013-01-09 18:44:00,
2013-01-09 13:45:00,52.1,51.0,30.37,SE,141,0.0,1.0,96,0.00,,,0.05,Wunderground v.1.15,2013-01-09 18:45:00,
2013-01-09 13:46:00,52.2,51.1,30.37,SE,141,0.0,1.0,96,0.00,,,0.05,Wunderground v.1.15,2013-01-09 18:46:00,
2013-01-09 13:48:00,52.2,51.1,30.37,SE,129,0.0,1.0,96,0.00,,,0.05,Wunderground v.1.15,2013-01-09 18:48:00,
2013-01-09 13:49:00,52.2,51.1,30.37,SE,129,0.0,1.0,96,0.00,,,0.05,Wunderground v.1.15,2013-01-09 18:49:00,
2013-01-09 13:51:00,52.3,51.2,30.37,SE,129,0.0,1.0,96,0.00,,,0.05,Wunderground v.1.15,2013-01-09 18:51:00,
2013-01-09 13:56:00,52.4,51.6,30.37,SE,129,0.0,1.0,97,0.00,,,0.05,Wunderground v.1.15,2013-01-09 18:56:00,
2013-01-09 14:01:00,52.4,51.3,30.36,SSE,155,0.0,1.0,96,0.00,,,0.05,Wunderground v.1.15,2013-01-09 19:01:00,
2013-01-09 14:06:00,52.5,51.4,30.36,SE,138,0.0,1.0,96,0.00,,,0.05,Wunderground v.1.15,2013-01-09 19:06:00,
2013-01-09 14:11:00,52.5,51.4,30.36,East,95,0.0,1.0,96,0.00,,,0.05,Wunderground v.1.15,2013-01-09 19:11:00,
2013-01-09 14:16:00,52.5,51.4,30.36,SE,132,0.0,1.0,96,0.00,,,0.05,Wunderground v.1.15,2013-01-09 19:16:00,
2013-01-09 14:22:00,52.5,51.4,30.36,SSE,153,0.0,1.0,96,0.00,,,0.05,Wunderground v.1.15,2013-01-09 19:22:00,
2013-01-09 14:27:00,52.6,51.5,30.36,SSE,153,0.0,1.0,96,0.00,,,0.05,Wunderground v.1.15,2013-01-09 19:27:00,
2013-01-09 14:32:00,52.6,51.5,30.36,East,92,0.0,1.0,96,0.00,,,0.05,Wunderground v.1.15,2013-01-09 19:32:00,
2013-01-09 14:37:00,52.9,51.8,30.36,East,92,0.0,1.0,96,0.00,,,0.05,Wunderground v.1.15,2013-01-09 19:37:00,
2013-01-09 14:42:00,52.9,51.8,30.37,ENE,66,0.0,1.0,96,0.00,,,0.05,Wunderground v.1.15,2013-01-09 19:42:00,
2013-01-09 14:48:00,52.9,51.8,30.37,ENE,65,1.0,1.0,96,0.00,,,0.05,Wunderground v.1.15,2013-01-09 19:48:00,
2013-01-09 14:53:00,52.9,51.8,30.37,NE,54,1.0,2.0,96,0.00,,,0.05,Wunderground v.1.15,2013-01-09 19:53:00,
2013-01-09 14:58:00,53.1,52.0,30.37,NNE,32,1.0,2.0,96,0.00,,,0.05,Wunderground v.1.15,2013-01-09 19:58:00,
2013-01-09 15:04:00,53.0,51.6,30.37,NNE,32,1.0,2.0,95,0.00,,,0.05,Wunderground v.1.15,2013-01-09 20:04:00,
2013-01-09 15:10:00,53.1,52.0,30.37,NE,44,2.0,3.0,96,0.00,,,0.05,Wunderground v.1.15,2013-01-09 20:10:00,
2013-01-09 15:15:00,53.1,51.7,30.37,NE,34,2.0,4.0,95,0.00,,,0.05,Wunderground v.1.15,2013-01-09 20:15:00,
2013-01-09 15:20:00,53.1,51.7,30.37,NE,34,3.0,4.0,95,0.00,,,0.05,Wunderground v.1.15,2013-01-09 20:20:00,
2013-01-09 15:25:00,53.1,51.7,30.37,NE,45,3.0,4.0,95,0.00,,,0.05,Wunderground v.1.15,2013-01-09 20:25:00,
2013-01-09 15:30:00,53.2,52.1,30.38,NE,47,3.0,3.0,96,0.00,,,0.05,Wunderground v.1.15,2013-01-09 20:30:00,
2013-01-09 15:35:00,53.3,51.9,30.38,ENE,75,2.0,3.0,95,0.00,,,0.05,Wunderground v.1.15,2013-01-09 20:35:00,
2013-01-09 15:40:00,53.4,52.0,30.38,ENE,57,1.0,2.0,95,0.00,,,0.05,Wunderground v.1.15,2013-01-09 20:40:00,
2013-01-09 15:45:00,53.4,52.0,30.38,ENE,64,2.0,3.0,95,0.00,,,0.05,Wunderground v.1.15,2013-01-09 20:45:00,
2013-01-09 15:50:00,53.4,52.0,30.38,NNE,22,2.0,3.0,95,0.00,,,0.05,Wunderground v.1.15,2013-01-09 20:50:00,
2013-01-09 15:55:00,53.4,52.3,30.38,ENE,68,2.0,3.0,96,0.00,,,0.05,Wunderground v.1.15,2013-01-09 20:55:00,
2013-01-09 16:00:00,53.6,52.5,30.38,ENE,63,1.0,2.0,96,0.00,,,0.05,Wunderground v.1.15,2013-01-09 21:00:00,
2013-01-09 16:05:00,53.6,52.5,30.39,ENE,64,1.0,2.0,96,0.00,,,0.05,Wunderground v.1.15,2013-01-09 21:05:00,
2013-01-09 16:10:00,53.7,52.6,30.39,ENE,64,0.0,1.0,96,0.00,,,0.05,Wunderground v.1.15,2013-01-09 21:10:00,
2013-01-09 16:15:00,53.7,52.6,30.38,ENE,61,1.0,2.0,96,0.00,,,0.05,Wunderground v.1.15,2013-01-09 21:15:00,
2013-01-09 16:20:00,53.7,52.6,30.39,ENE,61,1.0,1.0,96,0.00,,,0.05,Wunderground v.1.15,2013-01-09 21:20:00,
2013-01-09 16:25:00,53.7,52.6,30.39,SE,133,0.0,1.0,96,0.00,,,0.05,Wunderground v.1.15,2013-01-09 21:25:00,
2013-01-09 16:30:00,53.7,52.3,30.38,SE,133,0.0,1.0,95,0.00,,,0.05,Wunderground v.1.15,2013-01-09 21:30:00,
2013-01-09 16:35:00,53.6,52.2,30.38,ESE,105,0.0,2.0,95,0.00,,,0.05,Wunderground v.1.15,2013-01-09 21:35:00,
2013-01-09 16:41:00,53.5,52.1,30.38,ESE,105,0.0,1.0,95,0.00,,,0.05,Wunderground v.1.15,2013-01-09 21:41:00,
2013-01-09 16:46:00,53.5,52.4,30.39,ESE,105,0.0,1.0,96,0.00,,,0.05,Wunderground v.1.15,2013-01-09 21:46:00,
2013-01-09 16:51:00,53.5,52.4,30.38,ESE,110,0.0,1.0,96,0.00,,,0.05,Wunderground v.1.15,2013-01-09 21:51:00,
2013-01-09 16:56:00,53.4,52.3,30.38,ESE,115,1.0,1.0,96,0.00,,,0.05,Wunderground v.1.15,2013-01-09 21:56:00,
2013-01-09 17:01:00,53.4,52.0,30.39,ESE,111,0.0,1.0,95,0.00,,,0.05,Wunderground v.1.15,2013-01-09 22:01:00,
2013-01-09 17:07:00,53.2,51.8,30.38,East,101,0.0,1.0,95,0.00,,,0.05,Wunderground v.1.15,2013-01-09 22:07:00,
2013-01-09 17:12:00,53.1,51.7,30.38,East,101,0.0,1.0,95,0.00,,,0.05,Wunderground v.1.15,2013-01-09 22:12:00,
2013-01-09 17:17:00,53.0,51.6,30.38,ESE,110,0.0,1.0,95,0.00,,,0.05,Wunderground v.1.15,2013-01-09 22:17:00,
2013-01-09 17:22:00,52.9,51.5,30.38,ESE,110,0.0,1.0,95,0.00,,,0.05,Wunderground v.1.15,2013-01-09 22:22:00,
2013-01-09 17:27:00,52.8,51.4,30.38,ESE,110,0.0,1.0,95,0.00,,,0.05,Wunderground v.1.15,2013-01-09 22:27:00,
2013-01-09 17:33:00,52.6,51.2,30.38,ESE,110,0.0,1.0,95,0.00,,,0.05,Wunderground v.1.15,2013-01-09 22:33:00,
2013-01-09 17:38:00,52.5,51.1,30.38,ESE,113,0.0,1.0,95,0.00,,,0.05,Wunderground v.1.15,2013-01-09 22:38:00,
2013-01-09 17:43:00,52.4,51.0,30.37,ESE,113,0.0,1.0,95,0.00,,,0.06,Wunderground v.1.15,2013-01-09 22:43:00,
2013-01-09 17:48:00,52.3,50.9,30.37,ENE,66,0.0,1.0,95,0.00,,,0.06,Wunderground v.1.15,2013-01-09 22:48:00,
2013-01-09 17:53:00,52.2,50.8,30.37,ENE,68,0.0,1.0,95,0.00,,,0.06,Wunderground v.1.15,2013-01-09 22:53:00,
2013-01-09 17:59:00,52.2,50.8,30.36,ENE,68,0.0,1.0,95,0.00,,,0.06,Wunderground v.1.15,2013-01-09 22:59:00,
2013-01-09 18:04:00,52.1,50.7,30.36,ENE,68,0.0,1.0,95,0.00,,,0.06,Wunderground v.1.15,2013-01-09 23:04:00,
2013-01-09 18:09:00,52.0,50.9,30.36,ENE,68,0.0,1.0,96,0.00,,,0.06,Wunderground v.1.15,2013-01-09 23:09:00,
2013-01-09 18:14:00,51.9,50.8,30.36,WNW,301,0.0,1.0,96,0.00,,,0.06,Wunderground v.1.15,2013-01-09 23:14:00,
2013-01-09 18:19:00,51.9,50.8,30.36,WNW,301,0.0,1.0,96,0.00,,,0.06,Wunderground v.1.15,2013-01-09 23:19:00,
2013-01-09 18:25:00,51.7,50.6,30.36,WNW,301,0.0,1.0,96,0.00,,,0.06,Wunderground v.1.15,2013-01-09 23:25:00,
2013-01-09 18:30:00,51.5,50.4,30.36,WNW,301,0.0,1.0,96,0.00,,,0.06,Wunderground v.1.15,2013-01-09 23:30:00,
2013-01-09 18:35:00,51.4,50.3,30.36,WNW,301,0.0,1.0,96,0.00,,,0.06,Wunderground v.1.15,2013-01-09 23:35:00,
2013-01-09 18:40:00,51.3,50.2,30.37,WNW,301,0.0,1.0,96,0.00,,,0.06,Wunderground v.1.15,2013-01-09 23:40:00,
2013-01-09 18:45:00,51.3,50.5,30.36,North,360,1.0,2.0,97,0.00,,,0.06,Wunderground v.1.15,2013-01-09 23:45:00,
2013-01-09 18:50:00,51.3,50.5,30.36,NNE,25,2.0,2.0,97,0.00,,,0.06,Wunderground v.1.15,2013-01-09 23:50:00,
2013-01-09 18:55:00,51.4,50.6,30.37,NNE,25,2.0,3.0,97,0.00,,,0.06,Wunderground v.1.15,2013-01-09 23:55:00,
2013-01-09 19:00:00,51.4,50.6,30.37,NNE,20,3.0,3.0,97,0.00,,,0.06,Wunderground v.1.15,2013-01-10 00:00:00,
2013-01-09 19:05:00,51.3,50.5,30.37,NE,37,3.0,5.0,97,0.00,,,0.06,Wunderground v.1.15,2013-01-10 00:05:00,
2013-01-09 19:10:00,51.3,50.5,30.37,NNE,21,5.0,7.0,97,0.00,,,0.06,Wunderground v.1.15,2013-01-10 00:10:00,
2013-01-09 19:15:00,51.4,50.6,30.37,NE,49,5.0,7.0,97,0.00,,,0.06,Wunderground v.1.15,2013-01-10 00:15:00,
2013-01-09 19:20:00,51.5,50.7,30.38,NE,44,5.0,6.0,97,0.00,,,0.06,Wunderground v.1.15,2013-01-10 00:20:00,
2013-01-09 19:26:00,51.4,50.6,30.38,NE,45,5.0,6.0,97,0.00,,,0.06,Wunderground v.1.15,2013-01-10 00:26:00,
2013-01-09 19:31:00,51.4,50.6,30.38,NE,50,6.0,8.0,97,0.00,,,0.06,Wunderground v.1.15,2013-01-10 00:31:00,
2013-01-09 19:36:00,51.4,50.6,30.38,ENE,61,6.0,9.0,97,0.00,,,0.06,Wunderground v.1.15,2013-01-10 00:36:00,
2013-01-09 19:41:00,51.4,50.6,30.39,NE,49,6.0,6.0,97,0.00,,,0.06,Wunderground v.1.15,2013-01-10 00:41:00,
2013-01-09 19:46:00,51.4,50.6,30.39,NE,37,6.0,7.0,97,0.00,,,0.06,Wunderground v.1.15,2013-01-10 00:46:00,
2013-01-09 19:52:00,51.5,50.7,30.40,NE,46,6.0,8.0,97,0.00,,,0.06,Wunderground v.1.15,2013-01-10 00:52:00,
2013-01-09 19:57:00,51.5,50.7,30.41,ENE,62,5.0,8.0,97,0.00,,,0.06,Wunderground v.1.15,2013-01-10 00:57:00,
2013-01-09 20:02:00,51.4,50.6,30.41,NE,49,5.0,7.0,97,0.00,,,0.06,Wunderground v.1.15,2013-01-10 01:02:00,
2013-01-09 20:07:00,51.4,50.6,30.41,NE,41,4.0,7.0,97,0.00,,,0.06,Wunderground v.1.15,2013-01-10 01:07:00,
2013-01-09 20:12:00,51.5,50.7,30.41,ENE,60,5.0,8.0,97,0.00,,,0.06,Wunderground v.1.15,2013-01-10 01:12:00,
2013-01-09 20:17:00,51.4,50.6,30.41,NE,49,4.0,8.0,97,0.00,,,0.06,Wunderground v.1.15,2013-01-10 01:17:00,
2013-01-09 20:22:00,51.4,50.6,30.42,NE,44,2.0,4.0,97,0.00,,,0.06,Wunderground v.1.15,2013-01-10 01:22:00,
2013-01-09 20:27:00,51.3,50.5,30.42,ENE,66,3.0,4.0,97,0.00,,,0.06,Wunderground v.1.15,2013-01-10 01:27:00,
2013-01-09 20:32:00,51.3,50.5,30.42,ENE,65,3.0,3.0,97,0.00,,,0.06,Wunderground v.1.15,2013-01-10 01:32:00,
2013-01-09 20:37:00,51.2,50.4,30.42,NE,44,2.0,4.0,97,0.00,,,0.06,Wunderground v.1.15,2013-01-10 01:37:00,
2013-01-09 20:42:00,51.2,50.4,30.42,NE,45,4.0,6.0,97,0.00,,,0.06,Wunderground v.1.15,2013-01-10 01:42:00,
2013-01-09 20:48:00,51.2,50.4,30.43,NE,36,4.0,4.0,97,0.00,,,0.06,Wunderground v.1.15,2013-01-10 01:48:00,
2013-01-09 20:53:00,51.1,50.3,30.44,NE,37,3.0,5.0,97,0.00,,,0.06,Wunderground v.1.15,2013-01-10 01:53:00,
2013-01-09 20:58:00,51.1,50.3,30.44,NE,45,3.0,4.0,97,0.00,,,0.06,Wunderground v.1.15,2013-01-10 01:58:00,
2013-01-09 21:03:00,51.0,50.2,30.44,NE,45,3.0,4.0,97,0.00,,,0.06,Wunderground v.1.15,2013-01-10 02:03:00,
2013-01-09 21:08:00,51.0,49.9,30.44,NE,44,3.0,3.0,96,0.00,,,0.06,Wunderground v.1.15,2013-01-10 02:08:00,
2013-01-09 21:14:00,50.9,49.8,30.44,NE,53,4.0,6.0,96,0.00,,,0.06,Wunderground v.1.15,2013-01-10 02:14:00,
2013-01-09 21:19:00,50.8,49.7,30.44,NE,37,3.0,4.0,96,0.00,,,0.06,Wunderground v.1.15,2013-01-10 02:19:00,
2013-01-09 21:24:00,50.8,49.7,30.44,NE,44,3.0,4.0,96,0.00,,,0.06,Wunderground v.1.15,2013-01-10 02:24:00,
2013-01-09 21:29:00,50.7,49.6,30.44,NE,49,3.0,5.0,96,0.00,,,0.06,Wunderground v.1.15,2013-01-10 02:29:00,
2013-01-09 21:34:00,50.6,49.5,30.44,NE,44,3.0,5.0,96,0.00,,,0.06,Wunderground v.1.15,2013-01-10 02:34:00,
2013-01-09 21:40:00,50.6,49.5,30.44,NE,34,2.0,3.0,96,0.00,,,0.06,Wunderground v.1.15,2013-01-10 02:40:00,
2013-01-09 21:45:00,50.5,49.4,30.44,NNE,26,2.0,3.0,96,0.00,,,0.06,Wunderground v.1.15,2013-01-10 02:45:00,
2013-01-09 21:50:00,50.4,49.3,30.43,NE,49,2.0,3.0,96,0.00,,,0.06,Wunderground v.1.15,2013-01-10 02:50:00,
2013-01-09 21:55:00,50.4,49.3,30.43,NE,41,3.0,5.0,96,0.00,,,0.06,Wunderground v.1.15,2013-01-10 02:55:00,
2013-01-09 22:00:00,50.4,49.3,30.43,NE,34,4.0,4.0,96,0.00,,,0.06,Wunderground v.1.15,2013-01-10 03:00:00,
2013-01-09 22:06:00,50.3,49.2,30.43,NNE,30,4.0,4.0,96,0.00,,,0.06,Wunderground v.1.15,2013-01-10 03:06:00,
2013-01-09 22:11:00,50.3,49.2,30.42,NE,40,4.0,5.0,96,0.00,,,0.06,Wunderground v.1.15,2013-01-10 03:11:00,
2013-01-09 22:16:00,50.3,49.2,30.43,NNE,30,4.0,5.0,96,0.00,,,0.06,Wunderground v.1.15,2013-01-10 03:16:00,
2013-01-09 22:21:00,50.2,49.1,30.43,NNE,16,2.0,3.0,96,0.00,,,0.06,Wunderground v.1.15,2013-01-10 03:21:00,
2013-01-09 22:26:00,50.2,49.1,30.43,NNE,16,2.0,3.0,96,0.00,,,0.06,Wunderground v.1.15,2013-01-10 03:26:00,
2013-01-09 22:32:00,50.2,49.1,30.43,NNW,344,2.0,2.0,96,0.00,,,0.06,Wunderground v.1.15,2013-01-10 03:32:00,
2013-01-09 22:37:00,50.1,49.0,30.44,NW,314,2.0,2.0,96,0.00,,,0.06,Wunderground v.1.15,2013-01-10 03:37:00,
2013-01-09 22:42:00,50.1,49.3,30.44,North,349,1.0,2.0,97,0.00,,,0.06,Wunderground v.1.15,2013-01-10 03:42:00,
2013-01-09 22:47:00,50.1,49.3,30.44,NNE,17,1.0,2.0,97,0.00,,,0.06,Wunderground v.1.15,2013-01-10 03:47:00,
2013-01-09 22:52:00,50.1,49.3,30.43,ENE,57,1.0,2.0,97,0.00,,,0.06,Wunderground v.1.15,2013-01-10 03:52:00,
2013-01-09 22:58:00,50.2,49.4,30.44,NE,34,2.0,3.0,97,0.00,,,0.06,Wunderground v.1.15,2013-01-10 03:58:00,
2013-01-09 23:03:00,50.2,49.4,30.44,NNE,26,3.0,5.0,97,0.00,,,0.06,Wunderground v.1.15,2013-01-10 04:03:00,
2013-01-09 23:08:00,50.2,49.4,30.43,NE,40,3.0,4.0,97,0.00,,,0.06,Wunderground v.1.15,2013-01-10 04:08:00,
2013-01-09 23:13:00,50.2,49.4,30.43,NE,40,4.0,5.0,97,0.00,,,0.06,Wunderground v.1.15,2013-01-10 04:13:00,
2013-01-09 23:18:00,50.2,49.4,30.43,NE,40,4.0,5.0,97,0.00,,,0.06,Wunderground v.1.15,2013-01-10 04:18:00,
2013-01-09 23:23:00,50.2,49.4,30.43,NE,37,4.0,6.0,97,0.00,,,0.06,Wunderground v.1.15,2013-01-10 04:23:00,
2013-01-09 23:29:00,50.1,49.3,30.43,NE,53,4.0,4.0,97,0.00,,,0.06,Wunderground v.1.15,2013-01-10 04:29:00,
2013-01-09 23:34:00,50.1,49.3,30.42,ENE,67,3.0,4.0,97,0.00,,,0.06,Wunderground v.1.15,2013-01-10 04:34:00,
2013-01-09 23:39:00,50.0,49.2,30.43,NE,49,2.0,2.0,97,0.00,,,0.06,Wunderground v.1.15,2013-01-10 04:39:00,
2013-01-09 23:44:00,49.9,49.1,30.43,NE,46,1.0,2.0,97,0.00,,,0.06,Wunderground v.1.15,2013-01-10 04:44:00,
2013-01-09 23:49:00,49.9,49.1,30.43,NNE,23,1.0,3.0,97,0.00,,,0.06,Wunderground v.1.15,2013-01-10 04:49:00,
2013-01-09 23:54:00,49.9,49.1,30.43,NNE,29,2.0,3.0,97,0.00,,,0.06,Wunderground v.1.15,2013-01-10 04:54:00,
2013-01-09 23:59:00,49.8,49.0,30.43,NE,34,2.0,3.0,97,0.00,,,0.06,Wunderground v.1.15,2013-01-10 04:59:00,